Date,TemperatureHighF,TemperatureAvgF,TemperatureLowF,DewpointHighF,DewpointAvgF,DewpointLowF,HumidityHigh,HumidityAvg,HumidityLow,PressureMaxIn,PressureMinIn,WindSpeedMaxMPH,WindSpeedAvgMPH,GustSpeedMaxMPH,PrecipitationSumIn
2012-6-3,82,79,76,61,55,54,59,45,39,29.89,29.81,10,4,11,0.02
2012-6-6,78,64,57,61,58,54,99,84,46,30.06,29.97,6,1,6,0.02
2012-6-7,87,69,54,64,58,53,99,74,37,30.07,29.99,7,1,7,0.02
2012-6-8,89,71,53,62,57,52,99,67,30,30.07,29.98,8,2,8,0.00
2012-6-9,93,75,58,67,60,55,97,64,31,30.07,30.00,7,1,7,0.00
2012-6-10,97,78,61,70,64,59,97,68,33,30.16,30.06,4,1,4,0.00
2012-6-11,86,72,62,73,66,60,95,85,54,30.18,30.09,8,1,8,0.06
2012-6-12,70,69,69,70,69,68,99,97,95,30.09,29.99,7,2,8,0.09
2012-6-13,85,73,61,69,62,49,99,74,32,30.09,29.90,8,2,12,0.01
2012-6-14,85,70,59,66,61,55,96,75,51,30.23,30.09,8,2,8,0.00
2012-6-15,86,72,61,64,60,56,98,71,41,30.31,30.23,6,2,6,0.00
2012-6-16,83,64,54,62,57,54,99,80,44,30.35,30.22,4,1,6,0.00
2012-6-17,85,68,55,65,57,53,99,73,37,30.24,30.06,6,1,8,0.00
2012-6-18,79,67,61,70,63,58,99,89,74,30.13,30.06,4,1,4,0.46
2012-6-19,96,77,64,75,69,63,99,80,45,30.18,30.12,4,1,4,0.00
2012-7-1,102,92,78,77,74,70,87,57,38,29.94,29.81,5,2,8,1.23
2012-7-2,97,84,69,74,71,67,99,68,41,29.99,29.86,8,1,8,0.14
2012-7-3,101,83,69,75,70,64,99,69,31,30.00,29.89,4,1,8,0.00
2012-7-4,101,84,70,78,72,68,94,71,41,29.96,29.85,7,2,8,0.00
2012-7-5,105,88,73,78,74,69,95,67,33,29.91,29.83,6,1,8,0.00
2012-7-6,101,88,76,76,74,71,90,64,42,29.97,29.88,6,1,7,0.00
2012-7-7,106,88,75,79,75,70,97,69,33,29.96,29.85,8,1,9,0.00
2012-7-8,108,88,77,83,75,71,95,69,32,29.89,29.80,9,2,10,0.11
2012-7-9,92,79,71,76,73,71,98,85,55,29.98,29.85,4,1,8,0.04
2012-7-10,93,78,70,75,71,67,98,81,45,30.06,29.95,11,1,12,0.00
2012-7-11,90,76,66,72,68,65,99,78,47,30.13,30.04,5,1,8,0.00
2012-7-12,92,75,68,70,65,60,90,72,36,30.19,30.14,9,1,11,0.00
2012-7-13,93,78,70,66,62,55,78,60,31,30.22,30.15,5,1,5,0.00
2012-7-14,95,78,69,76,72,66,99,84,48,30.20,30.09,8,2,8,0.44
2012-7-15,98,80,72,80,74,71,99,86,45,30.15,30.01,11,2,14,0.26
2012-7-16,100,82,70,78,72,69,99,76,41,30.05,29.86,7,1,7,0.00
2012-7-17,103,84,70,75,70,65,99,70,33,29.94,29.84,4,1,7,0.00
2012-7-18,103,88,71,77,73,69,94,65,41,29.97,29.89,4,2,8,0.00
2012-7-19,100,90,72,76,73,67,97,58,37,30.01,29.89,6,2,8,0.00
2012-7-20,81,77,74,75,74,73,97,89,76,29.99,29.89,6,1,6,0.01
2012-7-21,74,71,69,74,69,66,99,93,84,30.16,29.97,8,2,8,0.25
2012-7-22,89,79,68,74,71,68,99,79,57,30.22,30.14,5,2,8,0.01
2012-7-23,99,81,71,76,73,68,99,79,40,30.17,30.01,5,2,6,0.05
2012-7-24,99,77,71,80,73,70,99,88,51,29.99,29.81,7,2,7,0.24
2012-7-25,92,79,66,71,67,62,99,71,40,30.02,29.88,5,2,9,0.00
2012-7-26,102,88,70,78,73,66,96,64,41,29.91,29.74,11,3,12,0.00
2012-7-27,98,82,70,73,70,67,97,71,42,29.95,29.81,11,2,12,0.01
2012-7-28,98,81,68,75,69,65,99,72,35,30.00,29.91,8,2,11,0.01
2012-7-29,94,86,74,69,67,66,77,55,42,30.06,30.00,5,2,10,0.00
2012-7-30,95,80,68,72,69,66,94,71,44,30.10,30.02,8,2,12,0.00
2012-7-31,96,77,68,75,71,68,99,83,44,30.07,29.93,6,1,11,0.63
2012-8-1,68,67,66,68,67,66,99,99,99,29.99,29.92,2,1,4,0.18
2012-8-2,97,81,69,76,72,69,99,77,43,29.99,29.89,10,1,10,0.00
2012-8-3,94,81,69,76,72,69,99,78,53,30.07,29.97,5,2,6,0.00
2012-8-4,94,79,70,76,72,69,99,83,50,30.20,30.11,4,2,10,0.02
2012-8-5,94,83,73,76,73,71,95,73,49,30.21,30.08,12,3,12,0.00
2012-8-6,92,83,75,77,74,72,94,76,56,30.13,30.04,7,2,7,0.00
2012-8-7,91,81,73,76,74,72,99,82,55,30.06,29.99,4,1,4,0.00
2012-8-8,92,81,73,79,75,69,99,83,56,30.04,29.97,4,1,15,0.07
2012-12-18,65,60,55,56,40,33,95,48,35,29.69,29.60,12,7,27,0.01
2012-12-19,68,55,40,41,36,32,86,54,28,30.14,29.88,8,3,13,0.01
2012-12-20,54,42,33,54,38,32,99,85,60,30.17,29.33,8,2,10,0.60
2012-12-21,55,41,34,54,30,19,99,67,42,29.61,29.32,14,5,23,0.08
2012-12-22,54,41,29,25,19,11,67,43,22,30.01,29.60,15,5,20,0.00
2012-12-23,52,36,24,25,20,12,74,53,27,30.03,29.88,8,2,11,0.00
2012-12-24,36,35,30,35,31,24,98,87,66,30.01,29.86,3,1,4,0.12
2012-12-25,52,40,33,44,37,33,99,89,70,30.18,29.86,4,2,6,0.00
2012-12-26,41,36,33,38,33,31,99,92,78,30.17,29.43,8,3,14,1.20
2012-12-27,51,39,32,34,28,22,97,67,38,30.02,29.46,11,3,17,0.00
2012-12-28,46,36,29,31,26,22,79,68,48,30.11,29.98,5,2,7,0.00
2012-12-29,50,40,33,41,31,25,90,72,50,29.97,29.55,18,3,18,0.12
2012-12-30,48,37,26,25,18,11,67,46,24,30.28,29.83,14,5,21,0.00
2012-12-31,43,35,23,26,21,16,75,58,43,30.27,29.97,4,2,8,0.00
2013-1-1,49,43,38,37,31,25,73,63,53,29.97,29.85,4,2,8,0.00